Portada
METAR-TAF:

METAR-TAF

Aeroports :

Ankeny, Iowa, Estats Units d'Amèrica

Ankeny Regional Airport

latitud: 41-41-24N, longitud: 093-33-57W, altitud: 275 m

Observació

L'informe es va fer fa 6 minuts, a les 04:55 UTC
Vent 13 kt del Nord amb ràfegues de 21 kt
Temperatura 12°C
Humitat 67%
Pressió 1021 hPa
Visibilitat: 16.1 km
Cel ennuvolat a una alçada de 7500 ft

METAR: KIKV 250455Z AUTO 36013G21KT 10SM BKN075 12/06 A3016 RMK AO2

Hora: 00:01 (05:01 UTC)


TAF: manca

Observacions i pronòstics meteorològics de més de 4000 aeroports (METAR i TAF).

Les estacions disponibles són els punts grocs i vermells al mapa.

Posi el ratolí al punt desitjat per veure el nom de l'estació.

Feu clic per veure les observacions i els pronòstics meteorològics.

Per canviar el mapa: feu clic els botons verds amb una creu de color negre per apropar; al botó verd amb un guió per allunyar la imatge; o en les fletxes verdes per a mapes adjacents.


METAR-TAF: